Terminal Aerodrome Forecast
Issued by NWS

Home | Current Version | Previous Version | Text Only | Print | Product List | Glossary Off
Versions: 1 2 3 4 5 6 7 8 9 10 11 12 13 14

000
FTUS43 KIWX 260500
TAFSBN
TAF
KSBN 260539Z 2606/2706 04008KT 4SM -SN SCT025 OVC040
      TEMPO 2607/2611 2SM -SN OVC025
     FM261100 05007KT 4SM -SN OVC020
     FM261400 02009KT P6SM SCT020 BKN050=

USA.gov is the U.S. government's official web portal to all federal, state and local government web resources and services.